sensor_id;sensor_type;location;lat;lon;timestamp;P1;durP1;ratioP1;P2;durP2;ratioP2
11996;SDS011;6058;48.704;9.474;2022-08-19T00:01:52;13.40;;;12.03;;
11996;SDS011;6058;48.704;9.474;2022-08-19T00:04:21;14.70;;;12.83;;
11996;SDS011;6058;48.704;9.474;2022-08-19T00:06:49;13.97;;;12.47;;
11996;SDS011;6058;48.704;9.474;2022-08-19T00:09:17;14.07;;;12.63;;
11996;SDS011;6058;48.704;9.474;2022-08-19T00:11:45;14.13;;;12.68;;
11996;SDS011;6058;48.704;9.474;2022-08-19T00:14:13;15.50;;;13.93;;
11996;SDS011;6058;48.704;9.474;2022-08-19T00:16:42;12.90;;;11.03;;
11996;SDS011;6058;48.704;9.474;2022-08-19T00:19:09;15.50;;;13.60;;
11996;SDS011;6058;48.704;9.474;2022-08-19T00:21:37;14.32;;;12.55;;
11996;SDS011;6058;48.704;9.474;2022-08-19T00:24:05;15.80;;;13.17;;
11996;SDS011;6058;48.704;9.474;2022-08-19T00:26:33;15.50;;;13.90;;
11996;SDS011;6058;48.704;9.474;2022-08-19T00:29:02;14.80;;;12.70;;
11996;SDS011;6058;48.704;9.474;2022-08-19T00:31:30;16.50;;;14.13;;
11996;SDS011;6058;48.704;9.474;2022-08-19T00:33:57;14.27;;;12.87;;
11996;SDS011;6058;48.704;9.474;2022-08-19T00:36:24;14.57;;;13.07;;
11996;SDS011;6058;48.704;9.474;2022-08-19T00:38:51;17.73;;;12.90;;
11996;SDS011;6058;48.704;9.474;2022-08-19T00:41:19;14.20;;;12.67;;
11996;SDS011;6058;48.704;9.474;2022-08-19T00:43:56;12.17;;;10.97;;
11996;SDS011;6058;48.704;9.474;2022-08-19T00:46:24;15.17;;;12.97;;
11996;SDS011;6058;48.704;9.474;2022-08-19T00:48:52;12.90;;;11.60;;
11996;SDS011;6058;48.704;9.474;2022-08-19T00:51:19;16.10;;;13.13;;
11996;SDS011;6058;48.704;9.474;2022-08-19T00:53:46;17.10;;;13.07;;
11996;SDS011;6058;48.704;9.474;2022-08-19T00:56:13;12.37;;;11.13;;
11996;SDS011;6058;48.704;9.474;2022-08-19T00:58:42;14.97;;;12.43;;
11996;SDS011;6058;48.704;9.474;2022-08-19T01:01:09;14.37;;;12.53;;
11996;SDS011;6058;48.704;9.474;2022-08-19T01:03:38;15.23;;;12.90;;
11996;SDS011;6058;48.704;9.474;2022-08-19T01:06:05;15.97;;;13.00;;
11996;SDS011;6058;48.704;9.474;2022-08-19T01:08:33;15.02;;;12.60;;
11996;SDS011;6058;48.704;9.474;2022-08-19T01:11:00;15.50;;;13.90;;
11996;SDS011;6058;48.704;9.474;2022-08-19T01:13:29;17.33;;;14.15;;
11996;SDS011;6058;48.704;9.474;2022-08-19T01:15:58;14.87;;;13.03;;
11996;SDS011;6058;48.704;9.474;2022-08-19T01:18:27;15.87;;;14.23;;
11996;SDS011;6058;48.704;9.474;2022-08-19T01:20:56;17.05;;;14.50;;
11996;SDS011;6058;48.704;9.474;2022-08-19T01:23:26;17.33;;;14.83;;
11996;SDS011;6058;48.704;9.474;2022-08-19T01:26:08;17.93;;;15.07;;
11996;SDS011;6058;48.704;9.474;2022-08-19T01:28:36;15.57;;;11.77;;
11996;SDS011;6058;48.704;9.474;2022-08-19T01:31:03;16.23;;;14.43;;
11996;SDS011;6058;48.704;9.474;2022-08-19T01:33:30;17.23;;;14.63;;
11996;SDS011;6058;48.704;9.474;2022-08-19T01:36:03;18.07;;;14.87;;
11996;SDS011;6058;48.704;9.474;2022-08-19T01:38:34;16.77;;;14.65;;
11996;SDS011;6058;48.704;9.474;2022-08-19T01:41:02;15.87;;;14.23;;
11996;SDS011;6058;48.704;9.474;2022-08-19T01:43:29;14.30;;;12.57;;
11996;SDS011;6058;48.704;9.474;2022-08-19T01:45:56;17.93;;;14.23;;
11996;SDS011;6058;48.704;9.474;2022-08-19T01:48:23;15.90;;;14.03;;
11996;SDS011;6058;48.704;9.474;2022-08-19T01:50:50;17.00;;;14.47;;
11996;SDS011;6058;48.704;9.474;2022-08-19T01:53:18;14.85;;;13.25;;
11996;SDS011;6058;48.704;9.474;2022-08-19T01:55:46;14.98;;;12.98;;
11996;SDS011;6058;48.704;9.474;2022-08-19T01:58:14;16.33;;;13.23;;
11996;SDS011;6058;48.704;9.474;2022-08-19T02:00:42;16.67;;;14.80;;
11996;SDS011;6058;48.704;9.474;2022-08-19T02:03:10;17.57;;;14.53;;
11996;SDS011;6058;48.704;9.474;2022-08-19T02:05:37;14.87;;;13.30;;
11996;SDS011;6058;48.704;9.474;2022-08-19T02:08:05;16.27;;;13.43;;
11996;SDS011;6058;48.704;9.474;2022-08-19T02:10:32;15.13;;;12.60;;
11996;SDS011;6058;48.704;9.474;2022-08-19T02:13:00;13.80;;;11.43;;
11996;SDS011;6058;48.704;9.474;2022-08-19T02:15:28;14.97;;;12.90;;
11996;SDS011;6058;48.704;9.474;2022-08-19T02:17:55;14.63;;;13.03;;
11996;SDS011;6058;48.704;9.474;2022-08-19T02:20:22;17.17;;;13.40;;
11996;SDS011;6058;48.704;9.474;2022-08-19T02:22:49;14.83;;;12.70;;
11996;SDS011;6058;48.704;9.474;2022-08-19T02:25:17;13.97;;;12.33;;
11996;SDS011;6058;48.704;9.474;2022-08-19T02:27:44;17.13;;;13.20;;
11996;SDS011;6058;48.704;9.474;2022-08-19T02:30:14;14.50;;;13.00;;
11996;SDS011;6058;48.704;9.474;2022-08-19T02:32:42;15.07;;;12.87;;
11996;SDS011;6058;48.704;9.474;2022-08-19T02:35:09;13.77;;;11.33;;
11996;SDS011;6058;48.704;9.474;2022-08-19T02:37:37;14.50;;;12.60;;
11996;SDS011;6058;48.704;9.474;2022-08-19T02:40:21;17.13;;;13.90;;
11996;SDS011;6058;48.704;9.474;2022-08-19T02:42:49;16.07;;;13.63;;
11996;SDS011;6058;48.704;9.474;2022-08-19T02:45:17;14.77;;;12.93;;
11996;SDS011;6058;48.704;9.474;2022-08-19T02:47:45;15.73;;;11.90;;
11996;SDS011;6058;48.704;9.474;2022-08-19T02:50:12;13.67;;;12.33;;
11996;SDS011;6058;48.704;9.474;2022-08-19T02:52:39;14.07;;;11.73;;
11996;SDS011;6058;48.704;9.474;2022-08-19T02:55:07;16.53;;;13.03;;
11996;SDS011;6058;48.704;9.474;2022-08-19T02:57:34;17.67;;;13.33;;
11996;SDS011;6058;48.704;9.474;2022-08-19T03:00:03;13.17;;;11.73;;
11996;SDS011;6058;48.704;9.474;2022-08-19T03:02:32;13.33;;;11.93;;
11996;SDS011;6058;48.704;9.474;2022-08-19T03:04:59;13.23;;;11.23;;
11996;SDS011;6058;48.704;9.474;2022-08-19T03:07:26;14.27;;;12.47;;
11996;SDS011;6058;48.704;9.474;2022-08-19T03:09:53;13.13;;;10.97;;
11996;SDS011;6058;48.704;9.474;2022-08-19T03:12:20;13.47;;;10.50;;
11996;SDS011;6058;48.704;9.474;2022-08-19T03:14:47;12.10;;;10.60;;
11996;SDS011;6058;48.704;9.474;2022-08-19T03:17:16;14.17;;;12.00;;
11996;SDS011;6058;48.704;9.474;2022-08-19T03:19:44;12.60;;;10.73;;
11996;SDS011;6058;48.704;9.474;2022-08-19T03:22:11;12.80;;;10.87;;
11996;SDS011;6058;48.704;9.474;2022-08-19T03:24:39;13.73;;;11.67;;
11996;SDS011;6058;48.704;9.474;2022-08-19T03:27:06;15.77;;;12.70;;
11996;SDS011;6058;48.704;9.474;2022-08-19T03:29:33;15.27;;;12.40;;
11996;SDS011;6058;48.704;9.474;2022-08-19T03:32:03;14.93;;;13.33;;
11996;SDS011;6058;48.704;9.474;2022-08-19T03:34:32;14.37;;;12.87;;
11996;SDS011;6058;48.704;9.474;2022-08-19T03:37:02;16.50;;;13.40;;
11996;SDS011;6058;48.704;9.474;2022-08-19T03:39:30;16.57;;;13.03;;
11996;SDS011;6058;48.704;9.474;2022-08-19T03:41:57;14.50;;;12.73;;
11996;SDS011;6058;48.704;9.474;2022-08-19T03:44:26;18.30;;;12.67;;
11996;SDS011;6058;48.704;9.474;2022-08-19T03:46:54;15.80;;;12.93;;
11996;SDS011;6058;48.704;9.474;2022-08-19T03:49:22;12.43;;;10.67;;
11996;SDS011;6058;48.704;9.474;2022-08-19T03:51:49;16.00;;;13.17;;
11996;SDS011;6058;48.704;9.474;2022-08-19T03:54:18;14.80;;;12.23;;
11996;SDS011;6058;48.704;9.474;2022-08-19T03:56:48;15.13;;;12.60;;
11996;SDS011;6058;48.704;9.474;2022-08-19T03:59:17;15.80;;;13.13;;
11996;SDS011;6058;48.704;9.474;2022-08-19T04:01:45;16.70;;;12.93;;
11996;SDS011;6058;48.704;9.474;2022-08-19T04:04:12;13.47;;;10.83;;
11996;SDS011;6058;48.704;9.474;2022-08-19T04:06:39;13.60;;;11.30;;
11996;SDS011;6058;48.704;9.474;2022-08-19T04:09:07;18.17;;;14.20;;
11996;SDS011;6058;48.704;9.474;2022-08-19T04:11:37;18.57;;;14.80;;
11996;SDS011;6058;48.704;9.474;2022-08-19T04:14:05;18.30;;;13.07;;
11996;SDS011;6058;48.704;9.474;2022-08-19T04:16:33;18.43;;;13.27;;
11996;SDS011;6058;48.704;9.474;2022-08-19T04:19:00;13.80;;;12.30;;
11996;SDS011;6058;48.704;9.474;2022-08-19T04:21:28;16.23;;;12.37;;
11996;SDS011;6058;48.704;9.474;2022-08-19T04:23:55;14.53;;;12.20;;
11996;SDS011;6058;48.704;9.474;2022-08-19T04:26:24;13.40;;;11.77;;
11996;SDS011;6058;48.704;9.474;2022-08-19T04:28:53;13.70;;;10.93;;
11996;SDS011;6058;48.704;9.474;2022-08-19T04:31:21;15.33;;;12.80;;
11996;SDS011;6058;48.704;9.474;2022-08-19T04:33:51;14.17;;;11.73;;
11996;SDS011;6058;48.704;9.474;2022-08-19T04:36:19;15.17;;;13.10;;
11996;SDS011;6058;48.704;9.474;2022-08-19T04:38:47;16.47;;;12.87;;
11996;SDS011;6058;48.704;9.474;2022-08-19T04:41:14;15.13;;;12.27;;
11996;SDS011;6058;48.704;9.474;2022-08-19T04:44:00;14.57;;;11.43;;
11996;SDS011;6058;48.704;9.474;2022-08-19T04:46:28;15.07;;;12.77;;
11996;SDS011;6058;48.704;9.474;2022-08-19T04:48:57;15.37;;;12.17;;
11996;SDS011;6058;48.704;9.474;2022-08-19T04:51:24;14.07;;;12.53;;
11996;SDS011;6058;48.704;9.474;2022-08-19T04:53:51;16.50;;;12.30;;
11996;SDS011;6058;48.704;9.474;2022-08-19T04:56:19;15.83;;;13.40;;
11996;SDS011;6058;48.704;9.474;2022-08-19T04:58:47;13.27;;;11.63;;
11996;SDS011;6058;48.704;9.474;2022-08-19T05:01:19;19.57;;;13.40;;
11996;SDS011;6058;48.704;9.474;2022-08-19T05:03:46;14.77;;;11.93;;
11996;SDS011;6058;48.704;9.474;2022-08-19T05:06:13;11.33;;;9.63;;
11996;SDS011;6058;48.704;9.474;2022-08-19T05:08:41;15.77;;;11.63;;
11996;SDS011;6058;48.704;9.474;2022-08-19T05:11:10;19.00;;;13.27;;
11996;SDS011;6058;48.704;9.474;2022-08-19T05:13:37;16.87;;;13.40;;
11996;SDS011;6058;48.704;9.474;2022-08-19T05:16:04;16.67;;;14.20;;
11996;SDS011;6058;48.704;9.474;2022-08-19T05:18:33;11.60;;;10.40;;
11996;SDS011;6058;48.704;9.474;2022-08-19T05:21:18;14.63;;;11.13;;
11996;SDS011;6058;48.704;9.474;2022-08-19T05:24:03;15.70;;;13.33;;
11996;SDS011;6058;48.704;9.474;2022-08-19T05:26:33;13.83;;;11.13;;
11996;SDS011;6058;48.704;9.474;2022-08-19T05:29:01;16.00;;;12.43;;
11996;SDS011;6058;48.704;9.474;2022-08-19T05:31:29;11.47;;;10.27;;
11996;SDS011;6058;48.704;9.474;2022-08-19T05:33:57;17.23;;;13.53;;
11996;SDS011;6058;48.704;9.474;2022-08-19T05:36:25;15.10;;;12.30;;
11996;SDS011;6058;48.704;9.474;2022-08-19T05:38:52;17.60;;;11.50;;
11996;SDS011;6058;48.704;9.474;2022-08-19T05:41:20;14.73;;;12.10;;
11996;SDS011;6058;48.704;9.474;2022-08-19T05:43:48;14.80;;;11.70;;
11996;SDS011;6058;48.704;9.474;2022-08-19T05:46:17;14.97;;;13.10;;
11996;SDS011;6058;48.704;9.474;2022-08-19T05:48:45;14.90;;;12.33;;
11996;SDS011;6058;48.704;9.474;2022-08-19T05:51:14;19.03;;;13.27;;
11996;SDS011;6058;48.704;9.474;2022-08-19T05:53:42;14.77;;;12.93;;
11996;SDS011;6058;48.704;9.474;2022-08-19T05:56:12;17.63;;;13.67;;
11996;SDS011;6058;48.704;9.474;2022-08-19T05:58:39;15.00;;;12.57;;
11996;SDS011;6058;48.704;9.474;2022-08-19T06:01:09;21.93;;;13.83;;
11996;SDS011;6058;48.704;9.474;2022-08-19T06:03:36;16.00;;;12.93;;
11996;SDS011;6058;48.704;9.474;2022-08-19T06:06:04;17.43;;;13.60;;
11996;SDS011;6058;48.704;9.474;2022-08-19T06:08:33;18.23;;;13.53;;
11996;SDS011;6058;48.704;9.474;2022-08-19T06:11:14;19.17;;;14.50;;
11996;SDS011;6058;48.704;9.474;2022-08-19T06:13:42;18.40;;;13.23;;
11996;SDS011;6058;48.704;9.474;2022-08-19T06:16:15;19.00;;;14.03;;
11996;SDS011;6058;48.704;9.474;2022-08-19T06:18:47;15.97;;;13.67;;
11996;SDS011;6058;48.704;9.474;2022-08-19T06:21:16;19.83;;;15.00;;
11996;SDS011;6058;48.704;9.474;2022-08-19T06:23:45;16.57;;;14.40;;
11996;SDS011;6058;48.704;9.474;2022-08-19T06:26:13;18.67;;;14.17;;
11996;SDS011;6058;48.704;9.474;2022-08-19T06:28:40;14.93;;;12.47;;
11996;SDS011;6058;48.704;9.474;2022-08-19T06:31:11;18.90;;;13.87;;
11996;SDS011;6058;48.704;9.474;2022-08-19T06:33:39;17.73;;;14.40;;
11996;SDS011;6058;48.704;9.474;2022-08-19T06:36:07;17.83;;;14.63;;
11996;SDS011;6058;48.704;9.474;2022-08-19T06:38:34;14.90;;;12.07;;
11996;SDS011;6058;48.704;9.474;2022-08-19T06:41:03;20.57;;;16.33;;
11996;SDS011;6058;48.704;9.474;2022-08-19T06:43:30;19.30;;;14.30;;
11996;SDS011;6058;48.704;9.474;2022-08-19T06:45:58;18.87;;;15.73;;
11996;SDS011;6058;48.704;9.474;2022-08-19T06:48:25;16.73;;;14.30;;
11996;SDS011;6058;48.704;9.474;2022-08-19T06:50:53;17.10;;;14.27;;
11996;SDS011;6058;48.704;9.474;2022-08-19T06:53:20;18.97;;;15.37;;
11996;SDS011;6058;48.704;9.474;2022-08-19T06:55:47;22.23;;;16.20;;
11996;SDS011;6058;48.704;9.474;2022-08-19T06:58:23;17.17;;;14.37;;
11996;SDS011;6058;48.704;9.474;2022-08-19T07:00:50;18.77;;;15.13;;
11996;SDS011;6058;48.704;9.474;2022-08-19T07:03:17;19.57;;;14.27;;
11996;SDS011;6058;48.704;9.474;2022-08-19T07:05:46;17.97;;;15.07;;
11996;SDS011;6058;48.704;9.474;2022-08-19T07:08:13;16.77;;;13.53;;
11996;SDS011;6058;48.704;9.474;2022-08-19T07:10:42;20.40;;;16.43;;
11996;SDS011;6058;48.704;9.474;2022-08-19T07:13:09;18.23;;;15.07;;
11996;SDS011;6058;48.704;9.474;2022-08-19T07:15:37;19.67;;;15.10;;
11996;SDS011;6058;48.704;9.474;2022-08-19T07:18:13;22.73;;;16.97;;
11996;SDS011;6058;48.704;9.474;2022-08-19T07:20:40;21.00;;;17.20;;
11996;SDS011;6058;48.704;9.474;2022-08-19T07:23:08;22.33;;;16.27;;
11996;SDS011;6058;48.704;9.474;2022-08-19T07:25:35;19.00;;;15.77;;
11996;SDS011;6058;48.704;9.474;2022-08-19T07:28:02;22.03;;;16.70;;
11996;SDS011;6058;48.704;9.474;2022-08-19T07:30:32;22.80;;;16.97;;
11996;SDS011;6058;48.704;9.474;2022-08-19T07:33:01;18.80;;;15.23;;
11996;SDS011;6058;48.704;9.474;2022-08-19T07:35:28;21.80;;;16.80;;
11996;SDS011;6058;48.704;9.474;2022-08-19T07:37:57;20.13;;;16.73;;
11996;SDS011;6058;48.704;9.474;2022-08-19T07:40:24;19.80;;;16.20;;
11996;SDS011;6058;48.704;9.474;2022-08-19T07:42:51;23.37;;;16.77;;
11996;SDS011;6058;48.704;9.474;2022-08-19T07:45:18;21.03;;;17.00;;
11996;SDS011;6058;48.704;9.474;2022-08-19T07:47:45;21.23;;;17.13;;
11996;SDS011;6058;48.704;9.474;2022-08-19T07:50:14;22.10;;;16.60;;
11996;SDS011;6058;48.704;9.474;2022-08-19T07:52:41;19.97;;;16.43;;
11996;SDS011;6058;48.704;9.474;2022-08-19T07:55:09;20.90;;;16.80;;
11996;SDS011;6058;48.704;9.474;2022-08-19T07:57:37;20.00;;;15.63;;
11996;SDS011;6058;48.704;9.474;2022-08-19T08:00:05;22.73;;;16.83;;
11996;SDS011;6058;48.704;9.474;2022-08-19T08:02:32;24.03;;;17.30;;
11996;SDS011;6058;48.704;9.474;2022-08-19T08:04:59;21.20;;;17.47;;
11996;SDS011;6058;48.704;9.474;2022-08-19T08:07:45;26.33;;;18.63;;
11996;SDS011;6058;48.704;9.474;2022-08-19T08:10:30;21.10;;;17.10;;
11996;SDS011;6058;48.704;9.474;2022-08-19T08:12:57;22.90;;;17.27;;
11996;SDS011;6058;48.704;9.474;2022-08-19T08:15:25;23.10;;;17.87;;
11996;SDS011;6058;48.704;9.474;2022-08-19T08:17:52;23.50;;;18.43;;
11996;SDS011;6058;48.704;9.474;2022-08-19T08:20:19;22.57;;;17.33;;
11996;SDS011;6058;48.704;9.474;2022-08-19T08:22:48;20.33;;;17.53;;
11996;SDS011;6058;48.704;9.474;2022-08-19T08:25:33;21.73;;;16.70;;
11996;SDS011;6058;48.704;9.474;2022-08-19T08:28:01;22.83;;;17.53;;
11996;SDS011;6058;48.704;9.474;2022-08-19T08:30:29;22.30;;;17.03;;
11996;SDS011;6058;48.704;9.474;2022-08-19T08:32:57;25.03;;;18.63;;
11996;SDS011;6058;48.704;9.474;2022-08-19T08:35:24;24.93;;;17.50;;
11996;SDS011;6058;48.704;9.474;2022-08-19T08:37:53;21.10;;;16.47;;
11996;SDS011;6058;48.704;9.474;2022-08-19T08:40:22;21.00;;;17.93;;
11996;SDS011;6058;48.704;9.474;2022-08-19T08:42:53;18.50;;;16.03;;
11996;SDS011;6058;48.704;9.474;2022-08-19T08:45:23;20.80;;;16.63;;
11996;SDS011;6058;48.704;9.474;2022-08-19T08:47:51;20.90;;;16.83;;
11996;SDS011;6058;48.704;9.474;2022-08-19T08:50:21;20.37;;;16.13;;
11996;SDS011;6058;48.704;9.474;2022-08-19T08:52:50;21.43;;;17.00;;
11996;SDS011;6058;48.704;9.474;2022-08-19T08:55:22;23.80;;;17.93;;
11996;SDS011;6058;48.704;9.474;2022-08-19T08:57:51;21.90;;;17.07;;
11996;SDS011;6058;48.704;9.474;2022-08-19T09:00:21;23.23;;;15.90;;
11996;SDS011;6058;48.704;9.474;2022-08-19T09:02:50;21.53;;;16.73;;
11996;SDS011;6058;48.704;9.474;2022-08-19T09:05:17;21.00;;;17.03;;
11996;SDS011;6058;48.704;9.474;2022-08-19T09:07:48;20.23;;;15.67;;
11996;SDS011;6058;48.704;9.474;2022-08-19T09:10:23;22.73;;;17.67;;
11996;SDS011;6058;48.704;9.474;2022-08-19T09:12:55;20.80;;;16.77;;
11996;SDS011;6058;48.704;9.474;2022-08-19T09:15:28;20.93;;;16.87;;
11996;SDS011;6058;48.704;9.474;2022-08-19T09:17:59;21.90;;;17.37;;
11996;SDS011;6058;48.704;9.474;2022-08-19T09:20:28;22.77;;;17.53;;
11996;SDS011;6058;48.704;9.474;2022-08-19T09:22:56;18.37;;;15.00;;
11996;SDS011;6058;48.704;9.474;2022-08-19T09:25:26;20.87;;;17.00;;
11996;SDS011;6058;48.704;9.474;2022-08-19T09:27:53;22.10;;;17.50;;
11996;SDS011;6058;48.704;9.474;2022-08-19T09:30:23;23.50;;;17.07;;
11996;SDS011;6058;48.704;9.474;2022-08-19T09:32:50;21.13;;;16.93;;
11996;SDS011;6058;48.704;9.474;2022-08-19T09:35:19;24.80;;;17.43;;
11996;SDS011;6058;48.704;9.474;2022-08-19T09:37:47;22.83;;;17.07;;
11996;SDS011;6058;48.704;9.474;2022-08-19T09:40:14;22.43;;;17.57;;
11996;SDS011;6058;48.704;9.474;2022-08-19T09:42:43;26.33;;;17.63;;
11996;SDS011;6058;48.704;9.474;2022-08-19T09:45:11;18.53;;;14.33;;
11996;SDS011;6058;48.704;9.474;2022-08-19T09:47:39;25.37;;;17.67;;
11996;SDS011;6058;48.704;9.474;2022-08-19T09:50:07;19.93;;;15.30;;
11996;SDS011;6058;48.704;9.474;2022-08-19T09:52:34;22.57;;;17.60;;
11996;SDS011;6058;48.704;9.474;2022-08-19T09:55:02;22.23;;;16.83;;
11996;SDS011;6058;48.704;9.474;2022-08-19T09:57:29;18.83;;;15.87;;
11996;SDS011;6058;48.704;9.474;2022-08-19T09:59:58;20.30;;;16.83;;
11996;SDS011;6058;48.704;9.474;2022-08-19T10:02:25;19.37;;;15.67;;
11996;SDS011;6058;48.704;9.474;2022-08-19T10:04:52;20.07;;;15.47;;
11996;SDS011;6058;48.704;9.474;2022-08-19T10:07:37;21.07;;;15.03;;
11996;SDS011;6058;48.704;9.474;2022-08-19T10:10:05;20.13;;;15.87;;
11996;SDS011;6058;48.704;9.474;2022-08-19T10:12:34;21.03;;;16.03;;
11996;SDS011;6058;48.704;9.474;2022-08-19T10:15:03;22.77;;;17.20;;
11996;SDS011;6058;48.704;9.474;2022-08-19T10:17:31;21.70;;;16.80;;
11996;SDS011;6058;48.704;9.474;2022-08-19T10:20:00;25.50;;;16.40;;
11996;SDS011;6058;48.704;9.474;2022-08-19T10:22:29;22.77;;;16.67;;
11996;SDS011;6058;48.704;9.474;2022-08-19T10:24:56;22.43;;;17.50;;
11996;SDS011;6058;48.704;9.474;2022-08-19T10:27:23;25.67;;;18.13;;
11996;SDS011;6058;48.704;9.474;2022-08-19T10:29:50;21.67;;;17.80;;
11996;SDS011;6058;48.704;9.474;2022-08-19T10:32:19;23.90;;;18.63;;
11996;SDS011;6058;48.704;9.474;2022-08-19T10:34:46;19.67;;;17.10;;
11996;SDS011;6058;48.704;9.474;2022-08-19T10:37:14;22.80;;;17.00;;
11996;SDS011;6058;48.704;9.474;2022-08-19T10:39:42;23.73;;;17.97;;
11996;SDS011;6058;48.704;9.474;2022-08-19T10:42:12;22.40;;;18.30;;
11996;SDS011;6058;48.704;9.474;2022-08-19T10:44:41;21.93;;;18.27;;
11996;SDS011;6058;48.704;9.474;2022-08-19T10:47:08;24.10;;;18.27;;
11996;SDS011;6058;48.704;9.474;2022-08-19T10:49:37;22.73;;;18.53;;
11996;SDS011;6058;48.704;9.474;2022-08-19T10:52:24;23.03;;;18.60;;
11996;SDS011;6058;48.704;9.474;2022-08-19T10:55:00;24.50;;;19.47;;
11996;SDS011;6058;48.704;9.474;2022-08-19T10:57:45;23.57;;;19.43;;
11996;SDS011;6058;48.704;9.474;2022-08-19T11:00:13;26.40;;;20.10;;
11996;SDS011;6058;48.704;9.474;2022-08-19T11:02:40;26.33;;;19.17;;
11996;SDS011;6058;48.704;9.474;2022-08-19T11:05:09;25.70;;;18.67;;
11996;SDS011;6058;48.704;9.474;2022-08-19T11:07:37;25.13;;;19.13;;
11996;SDS011;6058;48.704;9.474;2022-08-19T11:10:04;25.63;;;19.13;;
11996;SDS011;6058;48.704;9.474;2022-08-19T11:12:32;24.33;;;19.10;;
11996;SDS011;6058;48.704;9.474;2022-08-19T11:14:59;23.93;;;19.73;;
11996;SDS011;6058;48.704;9.474;2022-08-19T11:17:26;23.67;;;18.33;;
11996;SDS011;6058;48.704;9.474;2022-08-19T11:19:56;25.13;;;18.27;;
11996;SDS011;6058;48.704;9.474;2022-08-19T11:22:26;28.20;;;20.20;;
11996;SDS011;6058;48.704;9.474;2022-08-19T11:24:53;27.90;;;20.30;;
11996;SDS011;6058;48.704;9.474;2022-08-19T11:27:20;22.60;;;18.50;;
11996;SDS011;6058;48.704;9.474;2022-08-19T11:29:48;24.13;;;18.30;;
11996;SDS011;6058;48.704;9.474;2022-08-19T11:32:15;26.37;;;19.27;;
11996;SDS011;6058;48.704;9.474;2022-08-19T11:34:43;23.00;;;18.80;;
11996;SDS011;6058;48.704;9.474;2022-08-19T11:37:10;21.60;;;18.43;;
11996;SDS011;6058;48.704;9.474;2022-08-19T11:39:39;24.60;;;19.53;;
11996;SDS011;6058;48.704;9.474;2022-08-19T11:42:06;26.30;;;20.43;;
11996;SDS011;6058;48.704;9.474;2022-08-19T11:44:47;24.00;;;18.13;;
11996;SDS011;6058;48.704;9.474;2022-08-19T11:47:14;24.30;;;19.87;;
11996;SDS011;6058;48.704;9.474;2022-08-19T11:49:42;24.80;;;18.93;;
11996;SDS011;6058;48.704;9.474;2022-08-19T11:52:09;24.13;;;19.03;;
11996;SDS011;6058;48.704;9.474;2022-08-19T11:54:36;23.80;;;18.90;;
11996;SDS011;6058;48.704;9.474;2022-08-19T11:57:05;22.63;;;18.77;;
11996;SDS011;6058;48.704;9.474;2022-08-19T11:59:32;23.57;;;18.70;;
11996;SDS011;6058;48.704;9.474;2022-08-19T12:01:59;26.10;;;19.53;;
11996;SDS011;6058;48.704;9.474;2022-08-19T12:04:26;25.60;;;19.73;;
11996;SDS011;6058;48.704;9.474;2022-08-19T12:06:53;21.47;;;17.13;;
11996;SDS011;6058;48.704;9.474;2022-08-19T12:09:21;17.33;;;14.37;;
11996;SDS011;6058;48.704;9.474;2022-08-19T12:11:48;22.30;;;18.67;;
11996;SDS011;6058;48.704;9.474;2022-08-19T12:14:17;24.43;;;18.50;;
11996;SDS011;6058;48.704;9.474;2022-08-19T12:16:44;24.93;;;19.40;;
11996;SDS011;6058;48.704;9.474;2022-08-19T12:19:12;24.50;;;18.77;;
11996;SDS011;6058;48.704;9.474;2022-08-19T12:24:07;18.23;;;15.60;;
11996;SDS011;6058;48.704;9.474;2022-08-19T12:26:37;25.17;;;19.17;;
11996;SDS011;6058;48.704;9.474;2022-08-19T12:29:05;21.77;;;17.27;;
11996;SDS011;6058;48.704;9.474;2022-08-19T12:31:37;21.67;;;17.13;;
11996;SDS011;6058;48.704;9.474;2022-08-19T12:34:04;22.33;;;17.07;;
11996;SDS011;6058;48.704;9.474;2022-08-19T12:36:32;23.27;;;18.13;;
11996;SDS011;6058;48.704;9.474;2022-08-19T12:39:00;20.23;;;17.23;;
11996;SDS011;6058;48.704;9.474;2022-08-19T12:41:27;22.10;;;17.07;;
11996;SDS011;6058;48.704;9.474;2022-08-19T12:43:54;21.60;;;17.07;;
11996;SDS011;6058;48.704;9.474;2022-08-19T12:46:21;21.90;;;16.47;;
11996;SDS011;6058;48.704;9.474;2022-08-19T12:48:50;20.90;;;17.40;;
11996;SDS011;6058;48.704;9.474;2022-08-19T12:51:18;22.50;;;17.63;;
11996;SDS011;6058;48.704;9.474;2022-08-19T12:53:45;21.00;;;16.53;;
11996;SDS011;6058;48.704;9.474;2022-08-19T12:56:13;22.00;;;17.60;;
11996;SDS011;6058;48.704;9.474;2022-08-19T12:58:40;25.43;;;18.53;;
11996;SDS011;6058;48.704;9.474;2022-08-19T13:01:08;21.60;;;16.80;;
11996;SDS011;6058;48.704;9.474;2022-08-19T13:03:36;19.93;;;16.63;;
11996;SDS011;6058;48.704;9.474;2022-08-19T13:06:05;19.93;;;15.87;;
11996;SDS011;6058;48.704;9.474;2022-08-19T13:08:32;20.30;;;15.43;;
11996;SDS011;6058;48.704;9.474;2022-08-19T13:11:07;19.93;;;15.20;;
11996;SDS011;6058;48.704;9.474;2022-08-19T13:13:35;20.27;;;16.20;;
11996;SDS011;6058;48.704;9.474;2022-08-19T13:16:06;20.43;;;16.30;;
11996;SDS011;6058;48.704;9.474;2022-08-19T13:18:34;20.20;;;16.30;;
11996;SDS011;6058;48.704;9.474;2022-08-19T13:21:02;21.73;;;16.50;;
11996;SDS011;6058;48.704;9.474;2022-08-19T13:23:31;18.63;;;15.37;;
11996;SDS011;6058;48.704;9.474;2022-08-19T13:26:04;21.07;;;16.90;;
11996;SDS011;6058;48.704;9.474;2022-08-19T13:28:32;20.43;;;15.93;;
11996;SDS011;6058;48.704;9.474;2022-08-19T13:31:14;21.83;;;16.40;;
11996;SDS011;6058;48.704;9.474;2022-08-19T13:33:59;18.63;;;15.77;;
11996;SDS011;6058;48.704;9.474;2022-08-19T13:36:27;21.27;;;15.90;;
11996;SDS011;6058;48.704;9.474;2022-08-19T13:38:58;22.57;;;16.13;;
11996;SDS011;6058;48.704;9.474;2022-08-19T13:41:25;18.10;;;14.60;;
11996;SDS011;6058;48.704;9.474;2022-08-19T13:43:52;23.77;;;17.93;;
11996;SDS011;6058;48.704;9.474;2022-08-19T13:46:20;22.97;;;17.80;;
11996;SDS011;6058;48.704;9.474;2022-08-19T13:48:47;20.50;;;16.50;;
11996;SDS011;6058;48.704;9.474;2022-08-19T13:51:15;17.37;;;14.67;;
11996;SDS011;6058;48.704;9.474;2022-08-19T13:53:42;18.57;;;15.37;;
11996;SDS011;6058;48.704;9.474;2022-08-19T13:56:14;18.90;;;15.40;;
11996;SDS011;6058;48.704;9.474;2022-08-19T13:58:42;18.43;;;14.53;;
11996;SDS011;6058;48.704;9.474;2022-08-19T14:01:10;19.43;;;15.57;;
11996;SDS011;6058;48.704;9.474;2022-08-19T14:03:40;17.30;;;14.70;;
11996;SDS011;6058;48.704;9.474;2022-08-19T14:06:09;18.57;;;15.23;;
11996;SDS011;6058;48.704;9.474;2022-08-19T14:08:38;19.33;;;15.67;;
11996;SDS011;6058;48.704;9.474;2022-08-19T14:11:08;19.57;;;15.40;;
11996;SDS011;6058;48.704;9.474;2022-08-19T14:13:37;16.17;;;13.10;;
11996;SDS011;6058;48.704;9.474;2022-08-19T14:16:06;19.63;;;14.83;;
11996;SDS011;6058;48.704;9.474;2022-08-19T14:18:34;19.47;;;15.33;;
11996;SDS011;6058;48.704;9.474;2022-08-19T14:21:01;16.10;;;13.73;;
11996;SDS011;6058;48.704;9.474;2022-08-19T14:23:30;15.53;;;13.87;;
11996;SDS011;6058;48.704;9.474;2022-08-19T14:26:06;20.30;;;15.13;;
11996;SDS011;6058;48.704;9.474;2022-08-19T14:28:34;16.37;;;13.27;;
11996;SDS011;6058;48.704;9.474;2022-08-19T14:31:04;13.63;;;12.13;;
11996;SDS011;6058;48.704;9.474;2022-08-19T14:33:32;14.93;;;12.40;;
11996;SDS011;6058;48.704;9.474;2022-08-19T14:36:00;17.53;;;14.97;;
11996;SDS011;6058;48.704;9.474;2022-08-19T14:38:27;20.77;;;14.57;;
11996;SDS011;6058;48.704;9.474;2022-08-19T14:40:56;17.60;;;15.13;;
11996;SDS011;6058;48.704;9.474;2022-08-19T14:43:23;19.93;;;15.07;;
11996;SDS011;6058;48.704;9.474;2022-08-19T14:45:50;17.93;;;14.90;;